createdAt,value
2023-03-15T00:01:47.748Z,98714.22
2023-03-15T00:04:15.182Z,98714.09
2023-03-15T00:06:42.337Z,98734.00
2023-03-15T00:09:10.090Z,98737.75
2023-03-15T00:11:37.550Z,98737.44
2023-03-15T00:14:06.057Z,98740.69
2023-03-15T00:16:33.238Z,98738.69
2023-03-15T00:19:00.663Z,98748.41
2023-03-15T00:21:29.896Z,98743.22
2023-03-15T00:23:57.282Z,98751.63
2023-03-15T00:26:24.740Z,98762.78
2023-03-15T00:28:51.944Z,98757.03
2023-03-15T00:31:23.624Z,98752.88
2023-03-15T00:33:53.861Z,98747.38
2023-03-15T00:36:23.653Z,98747.12
2023-03-15T00:38:53.346Z,98738.97
2023-03-15T00:41:21.302Z,98753.41
2023-03-15T00:43:48.745Z,98744.88
2023-03-15T00:46:16.718Z,98740.69
2023-03-15T00:48:43.938Z,98733.59
2023-03-15T00:51:12.470Z,98716.31
2023-03-15T00:53:41.402Z,98719.56
2023-03-15T00:56:13.415Z,98706.16
2023-03-15T00:58:41.038Z,98723.34
2023-03-15T01:01:12.885Z,98708.44
2023-03-15T01:03:40.899Z,98722.34
2023-03-15T01:06:12.222Z,98726.19
2023-03-15T01:08:39.474Z,98715.94
2023-03-15T01:11:08.100Z,98733.69
2023-03-15T01:13:35.490Z,98726.38
2023-03-15T01:16:03.035Z,98735.59
2023-03-15T01:18:31.097Z,98731.25
2023-03-15T01:20:58.425Z,98721.41
2023-03-15T01:23:25.564Z,98737.59
2023-03-15T01:25:53.005Z,98723.25
2023-03-15T01:28:20.320Z,98728.13
2023-03-15T01:30:51.474Z,98728.44
2023-03-15T01:33:19.291Z,98725.00
2023-03-15T01:35:46.595Z,98729.69
2023-03-15T01:38:13.866Z,98728.50
2023-03-15T01:40:42.441Z,98715.84
2023-03-15T01:43:28.187Z,98728.31
2023-03-15T01:46:03.873Z,98732.59
2023-03-15T01:48:44.841Z,98738.06
2023-03-15T01:51:51.394Z,98726.78
2023-03-15T01:54:38.925Z,98738.72
2023-03-15T01:57:07.901Z,98733.97
2023-03-15T01:59:36.893Z,98731.47
2023-03-15T02:02:04.249Z,98743.00
2023-03-15T02:04:36.381Z,98743.66
2023-03-15T02:07:03.749Z,98738.84
2023-03-15T02:10:00.816Z,98738.09
2023-03-15T02:12:29.191Z,98735.44
2023-03-15T02:14:57.466Z,98745.03
2023-03-15T02:17:28.759Z,98739.34
2023-03-15T02:19:58.468Z,98744.47
2023-03-15T02:22:25.618Z,98738.00
2023-03-15T02:24:55.621Z,98749.16
2023-03-15T02:27:31.266Z,98752.16
2023-03-15T02:29:58.445Z,98745.84
2023-03-15T02:32:25.917Z,98737.69
2023-03-15T02:34:53.188Z,98747.62
2023-03-15T02:37:21.447Z,98733.59
2023-03-15T02:39:48.904Z,98743.06
2023-03-15T02:42:17.197Z,98736.25
2023-03-15T02:44:44.487Z,98739.94
2023-03-15T02:47:17.280Z,98735.84
2023-03-15T02:49:45.093Z,98752.34
2023-03-15T02:52:14.100Z,98749.41
2023-03-15T02:54:43.408Z,98754.31
2023-03-15T02:57:11.272Z,98747.22
2023-03-15T02:59:39.930Z,98747.56
2023-03-15T03:02:07.889Z,98749.97
2023-03-15T03:04:35.128Z,98736.75
2023-03-15T03:07:02.617Z,98733.72
2023-03-15T03:09:31.069Z,98749.75
2023-03-15T03:11:59.150Z,98742.63
2023-03-15T03:14:27.483Z,98749.22
2023-03-15T03:16:55.893Z,98732.91
2023-03-15T03:19:25.737Z,98724.84
2023-03-15T03:21:56.792Z,98730.44
2023-03-15T03:24:25.871Z,98735.72
2023-03-15T03:26:57.979Z,98736.97
2023-03-15T03:29:27.031Z,98729.00
2023-03-15T03:31:54.452Z,98736.13
2023-03-15T03:34:21.787Z,98736.16
2023-03-15T03:36:50.848Z,98734.44
2023-03-15T03:39:18.479Z,98721.66
2023-03-15T03:41:45.843Z,98727.75
2023-03-15T03:44:13.463Z,98721.81
2023-03-15T03:46:40.902Z,98722.06
2023-03-15T03:49:08.164Z,98704.97
2023-03-15T03:51:36.364Z,98712.53
2023-03-15T03:54:03.801Z,98716.59
2023-03-15T03:56:31.262Z,98721.81
2023-03-15T03:58:58.722Z,98717.31
2023-03-15T04:01:26.410Z,98730.16
2023-03-15T04:03:54.856Z,98739.16
2023-03-15T04:06:23.242Z,98739.16
2023-03-15T04:08:50.508Z,98733.06
2023-03-15T04:11:19.807Z,98748.63
2023-03-15T04:13:49.382Z,98756.38
2023-03-15T04:16:17.008Z,98769.75
2023-03-15T04:18:48.685Z,98777.38
2023-03-15T04:21:16.088Z,98794.91
2023-03-15T04:23:43.624Z,98789.25
2023-03-15T04:26:11.266Z,98794.16
2023-03-15T04:28:38.986Z,98789.78
2023-03-15T04:31:10.714Z,98794.41
2023-03-15T04:33:38.659Z,98797.34
2023-03-15T04:36:06.084Z,98811.16
2023-03-15T04:38:35.523Z,98810.25
2023-03-15T04:41:10.896Z,98825.13
2023-03-15T04:43:38.325Z,98824.50
2023-03-15T04:46:06.181Z,98833.47
2023-03-15T04:48:36.093Z,98825.47
2023-03-15T04:51:04.994Z,98837.66
2023-03-15T04:53:33.055Z,98849.19
2023-03-15T04:56:00.783Z,98860.44
2023-03-15T04:58:29.700Z,98867.88
2023-03-15T05:00:57.328Z,98865.31
2023-03-15T05:03:25.219Z,98858.22
2023-03-15T05:06:11.885Z,98868.03
2023-03-15T05:08:39.532Z,98864.91
2023-03-15T05:11:07.088Z,98865.84
2023-03-15T05:13:34.827Z,98867.34
2023-03-15T05:16:02.584Z,98850.72
2023-03-15T05:18:31.553Z,98856.09
2023-03-15T05:20:59.554Z,98856.97
2023-03-15T05:23:27.967Z,98865.53
2023-03-15T05:25:55.795Z,98857.00
2023-03-15T05:28:23.753Z,98852.78
2023-03-15T05:30:54.417Z,98849.41
2023-03-15T05:33:21.790Z,98856.56
2023-03-15T05:35:49.546Z,98859.13
2023-03-15T05:38:17.084Z,98856.72
2023-03-15T05:40:44.887Z,98864.03
2023-03-15T05:43:12.686Z,98861.03
2023-03-15T05:45:40.964Z,98854.41
2023-03-15T05:48:08.433Z,98850.37
2023-03-15T05:50:36.416Z,98853.22
2023-03-15T05:53:04.158Z,98852.53
2023-03-15T05:55:31.952Z,98846.00
2023-03-15T05:57:59.723Z,98858.22
2023-03-15T06:00:27.364Z,98861.34
2023-03-15T06:02:55.367Z,98861.44
2023-03-15T06:05:22.941Z,98866.19
2023-03-15T06:07:50.379Z,98853.22
2023-03-15T06:10:18.491Z,98875.78
2023-03-15T06:12:45.741Z,98857.84
2023-03-15T06:15:13.042Z,98857.75
2023-03-15T06:17:40.526Z,98864.69
2023-03-15T06:20:08.041Z,98859.97
2023-03-15T06:22:35.322Z,98874.47
2023-03-15T06:25:21.708Z,98870.12
2023-03-15T06:27:48.900Z,98870.38
2023-03-15T06:30:17.915Z,98873.19
2023-03-15T06:32:45.412Z,98875.94
2023-03-15T06:35:12.659Z,98880.00
2023-03-15T06:37:41.909Z,98879.28
2023-03-15T06:40:11.406Z,98883.16
2023-03-15T06:42:39.434Z,98878.66
2023-03-15T06:45:10.629Z,98880.03
2023-03-15T06:47:38.370Z,98874.31
2023-03-15T06:50:05.954Z,98869.75
2023-03-15T06:52:33.647Z,98866.88
2023-03-15T06:55:00.845Z,98877.16
2023-03-15T06:57:28.349Z,98892.50
2023-03-15T06:59:55.851Z,98904.94
2023-03-15T07:02:23.042Z,98907.88
2023-03-15T07:04:50.239Z,98901.72
2023-03-15T07:07:17.669Z,98901.28
2023-03-15T07:09:44.890Z,98903.50
2023-03-15T07:12:12.125Z,98908.19
2023-03-15T07:14:39.869Z,98915.59
2023-03-15T07:17:07.084Z,98901.03
2023-03-15T07:19:35.808Z,98920.75
2023-03-15T07:22:04.691Z,98919.03
2023-03-15T07:24:31.860Z,98926.37
2023-03-15T07:26:59.018Z,98943.25
2023-03-15T07:29:26.762Z,98939.56
2023-03-15T07:32:00.357Z,98943.38
2023-03-15T07:34:35.368Z,98952.62
2023-03-15T07:37:02.645Z,98959.41
2023-03-15T07:39:32.734Z,98939.25
2023-03-15T07:42:00.021Z,98959.91
2023-03-15T07:44:30.750Z,98964.63
2023-03-15T07:46:58.041Z,98961.19
2023-03-15T07:49:25.321Z,98960.50
2023-03-15T07:51:53.195Z,98959.16
2023-03-15T07:54:20.945Z,98968.06
2023-03-15T07:56:50.182Z,98958.38
2023-03-15T07:59:17.815Z,98960.47
2023-03-15T08:01:45.075Z,98970.25
2023-03-15T08:04:12.784Z,98966.09
2023-03-15T08:06:40.092Z,98978.34
2023-03-15T08:09:07.374Z,98984.06
2023-03-15T08:14:08.150Z,98972.41
2023-03-15T08:16:35.673Z,98976.41
2023-03-15T08:19:02.812Z,98978.59
2023-03-15T08:21:29.961Z,98964.81
2023-03-15T08:23:57.407Z,98968.16
2023-03-15T08:26:24.541Z,98967.25
2023-03-15T08:28:51.817Z,98965.56
2023-03-15T08:31:19.849Z,98969.41
2023-03-15T08:33:47.160Z,98993.22
2023-03-15T08:36:14.386Z,98987.09
2023-03-15T08:38:41.914Z,98990.13
2023-03-15T08:41:09.098Z,98977.16
2023-03-15T08:43:36.350Z,98993.66
2023-03-15T08:46:03.775Z,98999.38
2023-03-15T08:48:31.643Z,98981.16
2023-03-15T08:51:03.116Z,99005.31
2023-03-15T08:53:31.258Z,99021.50
2023-03-15T08:55:58.551Z,99008.63
2023-03-15T08:58:25.711Z,99029.94
2023-03-15T09:00:53.270Z,99033.78
2023-03-15T09:03:20.595Z,99043.28
2023-03-15T09:05:47.848Z,99044.66
2023-03-15T09:08:17.918Z,99044.16
2023-03-15T09:10:45.153Z,99044.00
2023-03-15T09:13:12.338Z,99058.75
2023-03-15T09:15:39.764Z,99070.09
2023-03-15T09:18:06.914Z,99075.84
2023-03-15T09:20:35.093Z,99080.56
2023-03-15T09:23:02.729Z,99083.06
2023-03-15T09:25:30.000Z,99070.13
2023-03-15T09:27:57.212Z,99079.59
2023-03-15T09:30:25.427Z,99091.44
2023-03-15T09:32:52.741Z,99089.97
2023-03-15T09:35:20.548Z,99110.41
2023-03-15T09:37:48.634Z,99107.03
2023-03-15T09:40:15.801Z,99111.03
2023-03-15T09:42:46.180Z,99116.44
2023-03-15T09:45:19.499Z,99117.56
2023-03-15T09:47:48.268Z,99121.91
2023-03-15T09:50:23.372Z,99113.28
2023-03-15T09:52:51.376Z,99107.78
2023-03-15T09:55:18.892Z,99105.28
2023-03-15T09:57:53.045Z,99104.41
2023-03-15T10:00:21.523Z,99101.13
2023-03-15T10:02:54.913Z,99108.78
2023-03-15T10:05:23.314Z,99111.03
2023-03-15T10:07:50.745Z,99125.88
2023-03-15T10:10:18.898Z,99116.47
2023-03-15T10:12:46.992Z,99125.37
2023-03-15T10:15:23.867Z,99118.94
2023-03-15T10:18:00.167Z,99131.97
2023-03-15T10:20:34.904Z,99117.66
2023-03-15T10:23:28.450Z,99117.78
2023-03-15T10:25:58.518Z,99119.78
2023-03-15T10:28:31.210Z,99121.28
2023-03-15T10:31:00.835Z,99127.50
2023-03-15T10:33:35.958Z,99147.78
2023-03-15T10:36:11.384Z,99154.84
2023-03-15T10:38:39.162Z,99130.34
2023-03-15T10:41:08.684Z,99147.69
2023-03-15T10:43:37.417Z,99149.38
2023-03-15T10:46:11.466Z,99127.38
2023-03-15T10:48:58.675Z,99156.19
2023-03-15T10:51:30.433Z,99159.03
2023-03-15T10:54:13.360Z,99155.16
2023-03-15T10:56:48.005Z,99167.84
2023-03-15T10:59:16.914Z,99169.91
2023-03-15T11:01:46.534Z,99158.81
2023-03-15T11:04:18.620Z,99164.63
2023-03-15T11:06:47.720Z,99172.59
2023-03-15T11:09:23.358Z,99174.06
2023-03-15T11:11:53.843Z,99175.66
2023-03-15T11:14:21.231Z,99174.59
2023-03-15T11:16:52.655Z,99179.56
2023-03-15T11:19:21.220Z,99184.91
2023-03-15T11:21:48.648Z,99185.25
2023-03-15T11:24:42.335Z,99190.72
2023-03-15T11:27:12.306Z,99187.44
2023-03-15T11:29:40.630Z,99188.88
2023-03-15T11:32:18.934Z,99188.66
2023-03-15T11:35:05.424Z,99183.63
2023-03-15T11:37:42.937Z,99188.81
2023-03-15T11:40:28.815Z,99189.66
2023-03-15T11:43:14.182Z,99171.72
2023-03-15T11:45:43.356Z,99175.31
2023-03-15T11:48:25.746Z,99172.34
2023-03-15T11:50:56.153Z,99172.31
2023-03-15T11:53:23.950Z,99196.81
2023-03-15T11:55:53.807Z,99182.50
2023-03-15T11:58:34.635Z,99200.91
2023-03-15T12:01:02.830Z,99197.38
2023-03-15T12:03:30.465Z,99210.38
2023-03-15T12:06:00.864Z,99210.34
2023-03-15T12:08:34.927Z,99203.84
2023-03-15T12:11:02.535Z,99209.31
2023-03-15T12:13:30.597Z,99206.78
2023-03-15T12:15:58.095Z,99204.12
2023-03-15T12:18:27.217Z,99223.16
2023-03-15T12:21:13.471Z,99210.53
2023-03-15T12:23:43.943Z,99194.19
2023-03-15T12:26:23.446Z,99213.19
2023-03-15T12:29:06.598Z,99216.72
2023-03-15T12:31:43.828Z,99203.03
2023-03-15T12:34:15.325Z,99205.53
2023-03-15T12:36:42.642Z,99204.72
2023-03-15T12:39:09.828Z,99196.06
2023-03-15T12:41:41.156Z,99205.94
2023-03-15T12:44:26.852Z,99208.31
2023-03-15T12:46:55.174Z,99213.44
2023-03-15T12:49:25.386Z,99210.75
2023-03-15T12:52:04.210Z,99223.22
2023-03-15T12:54:50.518Z,99221.28
2023-03-15T12:57:28.269Z,99207.75
2023-03-15T13:00:11.918Z,99213.63
2023-03-15T13:02:46.072Z,99217.41
2023-03-15T13:05:37.534Z,99218.50
2023-03-15T13:08:04.674Z,99226.38
2023-03-15T13:10:50.888Z,99215.78
2023-03-15T13:13:21.006Z,99235.03
2023-03-15T13:16:02.209Z,99245.44
2023-03-15T13:18:34.358Z,99243.16
2023-03-15T13:21:02.088Z,99250.62
2023-03-15T13:23:31.842Z,99265.50
2023-03-15T13:26:17.546Z,99274.72
2023-03-15T13:28:52.236Z,99249.16
2023-03-15T13:31:19.765Z,99258.88
2023-03-15T13:33:49.165Z,99263.50
2023-03-15T13:36:23.609Z,99252.09
2023-03-15T13:38:53.456Z,99278.81
2023-03-15T13:41:26.089Z,99283.47
2023-03-15T13:43:56.682Z,99267.66
2023-03-15T13:46:26.819Z,99272.09
2023-03-15T13:48:55.218Z,99278.22
2023-03-15T13:51:35.899Z,99290.59
2023-03-15T13:54:07.482Z,99273.38
2023-03-15T13:56:48.759Z,99291.63
2023-03-15T13:59:17.703Z,99291.94
2023-03-15T14:01:45.371Z,99303.25
2023-03-15T14:04:16.438Z,99280.28
2023-03-15T14:06:46.902Z,99311.38
2023-03-15T14:09:23.265Z,99312.34
2023-03-15T14:12:02.513Z,99315.94
2023-03-15T14:14:31.400Z,99320.06
2023-03-15T14:17:05.896Z,99312.47
2023-03-15T14:19:35.251Z,99325.66
2023-03-15T14:22:12.692Z,99330.09
2023-03-15T14:24:42.579Z,99297.28
2023-03-15T14:27:36.692Z,99320.22
2023-03-15T14:30:04.713Z,99334.81
2023-03-15T14:32:34.760Z,99331.13
2023-03-15T14:35:03.998Z,99344.97
2023-03-15T14:37:38.090Z,99333.91
2023-03-15T14:40:30.617Z,99342.16
2023-03-15T14:42:58.444Z,99342.91
2023-03-15T14:45:27.484Z,99342.94
2023-03-15T14:47:58.728Z,99339.78
2023-03-15T14:50:28.925Z,99347.31
2023-03-15T14:52:57.307Z,99358.22
2023-03-15T14:55:29.486Z,99362.66
2023-03-15T14:57:57.205Z,99369.06
2023-03-15T15:00:25.115Z,99363.84
2023-03-15T15:02:56.252Z,99364.00
2023-03-15T15:05:32.394Z,99366.91
2023-03-15T15:08:06.269Z,99369.75
2023-03-15T15:10:34.858Z,99389.75
2023-03-15T15:13:06.666Z,99373.56
2023-03-15T15:15:51.187Z,99383.19
2023-03-15T15:18:25.987Z,99412.78
2023-03-15T15:20:58.594Z,99391.50
2023-03-15T15:23:29.537Z,99408.94
2023-03-15T15:26:05.245Z,99405.97
2023-03-15T15:28:36.849Z,99408.19
2023-03-15T15:31:07.134Z,99419.53
2023-03-15T15:33:35.255Z,99410.81
2023-03-15T15:36:04.433Z,99413.72
2023-03-15T15:38:38.952Z,99424.31
2023-03-15T15:41:13.431Z,99422.72
2023-03-15T15:43:46.472Z,99434.66
2023-03-15T15:46:14.849Z,99435.38
2023-03-15T15:48:45.565Z,99444.37
2023-03-15T15:51:29.601Z,99453.22
2023-03-15T15:53:59.523Z,99414.22
2023-03-15T15:56:31.492Z,99450.09
2023-03-15T15:59:01.043Z,99454.41
2023-03-15T16:01:28.950Z,99451.91
2023-03-15T16:03:57.432Z,99465.03
2023-03-15T16:06:25.147Z,99452.97
2023-03-15T16:08:53.682Z,99465.56
2023-03-15T16:11:21.575Z,99462.84
2023-03-15T16:13:55.900Z,99467.37
2023-03-15T16:16:23.827Z,99478.28
2023-03-15T16:18:51.281Z,99471.41
2023-03-15T16:21:28.921Z,99480.09
2023-03-15T16:24:22.403Z,99491.69
2023-03-15T16:26:51.239Z,99488.28
2023-03-15T16:29:22.654Z,99495.75
2023-03-15T16:31:51.395Z,99494.47
2023-03-15T16:34:24.670Z,99496.66
2023-03-15T16:36:56.146Z,99508.16
2023-03-15T16:39:24.622Z,99501.62
2023-03-15T16:41:56.962Z,99515.22
2023-03-15T16:44:32.692Z,99508.94
2023-03-15T16:47:00.724Z,99516.84
2023-03-15T16:49:30.584Z,99520.56
2023-03-15T16:51:59.230Z,99537.78
2023-03-15T16:54:40.572Z,99517.31
2023-03-15T16:57:22.330Z,99526.75
2023-03-15T16:59:51.754Z,99534.22
2023-03-15T17:02:23.395Z,99534.34
2023-03-15T17:04:53.273Z,99544.25
2023-03-15T17:07:28.758Z,99551.84
2023-03-15T17:09:59.540Z,99568.94
2023-03-15T17:12:31.364Z,99545.00
2023-03-15T17:15:04.014Z,99559.78
2023-03-15T17:17:34.401Z,99572.91
2023-03-15T17:20:07.105Z,99577.50
2023-03-15T17:22:42.425Z,99567.84
2023-03-15T17:25:11.791Z,99573.00
2023-03-15T17:27:42.017Z,99576.91
2023-03-15T17:30:22.742Z,99574.87
2023-03-15T17:32:53.147Z,99573.47
2023-03-15T17:35:24.112Z,99576.25
2023-03-15T17:37:53.630Z,99599.16
2023-03-15T17:40:25.596Z,99599.59
2023-03-15T17:42:56.242Z,99599.63
2023-03-15T17:45:33.543Z,99611.41
2023-03-15T17:48:03.248Z,99619.59
2023-03-15T17:50:33.997Z,99625.59
2023-03-15T17:53:20.935Z,99625.88
2023-03-15T17:55:49.854Z,99633.94
2023-03-15T17:58:21.909Z,99633.84
2023-03-15T18:00:51.952Z,99647.25
2023-03-15T18:03:21.298Z,99654.25
2023-03-15T18:05:50.623Z,99664.00
2023-03-15T18:08:21.997Z,99654.28
2023-03-15T18:10:52.072Z,99658.16
2023-03-15T18:13:24.675Z,99661.53
2023-03-15T18:15:54.018Z,99661.47
2023-03-15T18:18:23.844Z,99668.97
2023-03-15T18:20:52.361Z,99662.06
2023-03-15T18:23:20.971Z,99677.66
2023-03-15T18:25:49.770Z,99675.19
2023-03-15T18:28:18.692Z,99666.88
2023-03-15T18:30:49.124Z,99684.25
2023-03-15T18:33:19.527Z,99679.38
2023-03-15T18:35:49.677Z,99693.22
2023-03-15T18:38:21.298Z,99680.87
2023-03-15T18:40:52.181Z,99692.94
2023-03-15T18:43:21.904Z,99701.44
2023-03-15T18:45:51.759Z,99701.94
2023-03-15T18:48:27.824Z,99696.53
2023-03-15T18:51:03.536Z,99703.78
2023-03-15T18:53:32.995Z,99702.38
2023-03-15T18:56:05.045Z,99705.91
2023-03-15T18:58:34.140Z,99701.84
2023-03-15T19:01:03.109Z,99709.78
2023-03-15T19:03:32.196Z,99711.59
2023-03-15T19:06:09.402Z,99722.16
2023-03-15T19:08:39.349Z,99711.75
2023-03-15T19:11:08.621Z,99720.28
2023-03-15T19:13:38.686Z,99722.25
2023-03-15T19:16:08.379Z,99725.22
2023-03-15T19:18:36.762Z,99729.88
2023-03-15T19:21:05.811Z,99729.91
2023-03-15T19:23:35.340Z,99731.81
2023-03-15T19:26:04.772Z,99735.66
2023-03-15T19:28:33.612Z,99744.72
2023-03-15T19:31:04.958Z,99738.59
2023-03-15T19:33:35.691Z,99744.59
2023-03-15T19:36:05.920Z,99745.41
2023-03-15T19:38:36.900Z,99743.81
2023-03-15T19:41:09.743Z,99754.50
2023-03-15T19:43:43.007Z,99759.91
2023-03-15T19:46:14.444Z,99760.97
2023-03-15T19:48:47.851Z,99768.72
2023-03-15T19:51:17.809Z,99776.03
2023-03-15T19:53:48.146Z,99784.59
2023-03-15T19:56:17.683Z,99766.03
2023-03-15T19:58:46.846Z,99792.66
2023-03-15T20:01:16.793Z,99793.50
2023-03-15T20:03:46.526Z,99791.56
2023-03-15T20:06:17.833Z,99792.22
2023-03-15T20:08:47.286Z,99792.75
2023-03-15T20:11:20.825Z,99798.72
2023-03-15T20:13:50.868Z,99795.31
2023-03-15T20:16:20.650Z,99799.66
2023-03-15T20:18:55.313Z,99814.50
2023-03-15T20:21:28.385Z,99813.19
2023-03-15T20:24:01.921Z,99814.16
2023-03-15T20:26:33.241Z,99820.75
2023-03-15T20:29:02.671Z,99822.62
2023-03-15T20:31:33.300Z,99824.50
2023-03-15T20:34:03.883Z,99816.19
2023-03-15T20:36:33.748Z,99819.34
2023-03-15T20:39:06.416Z,99818.91
2023-03-15T20:41:41.275Z,99819.97
2023-03-15T20:44:10.641Z,99812.72
2023-03-15T20:46:40.508Z,99822.50
2023-03-15T20:49:09.670Z,99819.69
2023-03-15T20:51:39.618Z,99829.84
2023-03-15T20:54:10.091Z,99824.50
2023-03-15T20:56:39.520Z,99829.97
2023-03-15T20:59:08.543Z,99823.63
2023-03-15T21:01:37.079Z,99820.00
2023-03-15T21:04:12.272Z,99823.38
2023-03-15T21:06:43.216Z,99827.69
2023-03-15T21:09:13.167Z,99819.97
2023-03-15T21:11:43.505Z,99830.03
2023-03-15T21:14:13.238Z,99822.94
2023-03-15T21:16:42.466Z,99818.53
2023-03-15T21:19:12.450Z,99821.91
2023-03-15T21:21:43.668Z,99823.63
2023-03-15T21:24:12.461Z,99821.38
2023-03-15T21:26:44.307Z,99829.75
2023-03-15T21:29:13.019Z,99821.88
2023-03-15T21:31:42.238Z,99816.59
2023-03-15T21:34:10.603Z,99822.84
2023-03-15T21:36:39.920Z,99821.53
2023-03-15T21:39:08.828Z,99826.94
2023-03-15T21:41:40.545Z,99824.16
2023-03-15T21:44:09.343Z,99837.78
2023-03-15T21:46:37.802Z,99834.56
2023-03-15T21:49:05.845Z,99827.78
2023-03-15T21:51:34.219Z,99826.53
2023-03-15T21:54:02.160Z,99828.38
2023-03-15T21:56:30.124Z,99821.53
2023-03-15T21:58:58.403Z,99829.72
2023-03-15T22:01:26.058Z,99832.38
2023-03-15T22:03:53.828Z,99836.84
2023-03-15T22:06:22.386Z,99833.50
2023-03-15T22:08:50.460Z,99841.22
2023-03-15T22:11:19.233Z,99843.41
2023-03-15T22:13:46.636Z,99848.16
2023-03-15T22:16:14.402Z,99841.41
2023-03-15T22:18:42.153Z,99841.22
2023-03-15T22:21:09.652Z,99843.88
2023-03-15T22:23:37.109Z,99846.66
2023-03-15T22:26:04.969Z,99846.66
2023-03-15T22:28:33.183Z,99849.75
2023-03-15T22:31:01.716Z,99847.53
2023-03-15T22:33:29.628Z,99848.22
2023-03-15T22:35:58.337Z,99838.53
2023-03-15T22:38:26.310Z,99857.75
2023-03-15T22:41:06.729Z,99855.97
2023-03-15T22:43:35.183Z,99860.59
2023-03-15T22:46:04.124Z,99867.06
2023-03-15T22:48:31.623Z,99862.91
2023-03-15T22:51:04.364Z,99862.28
2023-03-15T22:53:32.277Z,99867.00
2023-03-15T22:56:00.062Z,99870.13
2023-03-15T22:58:29.581Z,99871.69
2023-03-15T23:00:57.260Z,99876.00
2023-03-15T23:03:25.250Z,99875.00
2023-03-15T23:05:53.769Z,99890.03
2023-03-15T23:08:22.810Z,99888.28
2023-03-15T23:10:50.614Z,99877.78
2023-03-15T23:13:18.354Z,99880.53
2023-03-15T23:15:46.052Z,99878.63
2023-03-15T23:18:14.720Z,99887.09
2023-03-15T23:20:42.822Z,99900.19
2023-03-15T23:23:10.497Z,99903.44
2023-03-15T23:25:38.971Z,99909.13
2023-03-15T23:28:06.882Z,99902.97
2023-03-15T23:30:36.213Z,99911.03
2023-03-15T23:33:04.707Z,99922.50
2023-03-15T23:35:32.370Z,99917.75
2023-03-15T23:38:00.096Z,99905.59
2023-03-15T23:40:29.882Z,99920.44
2023-03-15T23:43:00.516Z,99919.78
2023-03-15T23:45:30.033Z,99919.31
2023-03-15T23:47:57.978Z,99921.12
2023-03-15T23:50:26.403Z,99918.69
2023-03-15T23:52:56.341Z,99928.50
2023-03-15T23:55:24.107Z,99935.28
2023-03-15T23:57:51.892Z,99940.84
